sensor_id;sensor_type;location;lat;lon;timestamp;P1;P2;P0
37290;PMS5003;23175;-33.706;151.094;2023-07-22T00:02:21;5;5;
37290;PMS5003;23175;-33.706;151.094;2023-07-22T00:04:51;5;5;
37290;PMS5003;23175;-33.706;151.094;2023-07-22T00:07:21;3;3;
37290;PMS5003;23175;-33.706;151.094;2023-07-22T00:09:51;4;3;
37290;PMS5003;23175;-33.706;151.094;2023-07-22T00:12:22;3;3;
37290;PMS5003;23175;-33.706;151.094;2023-07-22T00:14:52;3;3;
37290;PMS5003;23175;-33.706;151.094;2023-07-22T00:17:23;4;4;
37290;PMS5003;23175;-33.706;151.094;2023-07-22T00:19:53;4;3;
37290;PMS5003;23175;-33.706;151.094;2023-07-22T00:22:23;5;5;
37290;PMS5003;23175;-33.706;151.094;2023-07-22T00:24:54;2;2;
37290;PMS5003;23175;-33.706;151.094;2023-07-22T00:27:24;5;5;
37290;PMS5003;23175;-33.706;151.094;2023-07-22T00:29:54;5;3;
37290;PMS5003;23175;-33.706;151.094;2023-07-22T00:32:25;5;2;
37290;PMS5003;23175;-33.706;151.094;2023-07-22T00:34:55;3;3;
37290;PMS5003;23175;-33.706;151.094;2023-07-22T00:37:25;2;2;
37290;PMS5003;23175;-33.706;151.094;2023-07-22T00:39:55;4;3;
37290;PMS5003;23175;-33.706;151.094;2023-07-22T00:42:25;2;2;
37290;PMS5003;23175;-33.706;151.094;2023-07-22T00:44:55;2;2;
37290;PMS5003;23175;-33.706;151.094;2023-07-22T00:47:25;3;2;
37290;PMS5003;23175;-33.706;151.094;2023-07-22T00:49:55;0;0;
37290;PMS5003;23175;-33.706;151.094;2023-07-22T00:52:25;1;1;
37290;PMS5003;23175;-33.706;151.094;2023-07-22T00:54:55;0;0;
37290;PMS5003;23175;-33.706;151.094;2023-07-22T00:57:25;0;0;
37290;PMS5003;23175;-33.706;151.094;2023-07-22T00:59:55;2;2;
37290;PMS5003;23175;-33.706;151.094;2023-07-22T01:02:25;3;1;
37290;PMS5003;23175;-33.706;151.094;2023-07-22T01:04:56;2;2;
37290;PMS5003;23175;-33.706;151.094;2023-07-22T01:07:27;2;1;
37290;PMS5003;23175;-33.706;151.094;2023-07-22T01:10:02;2;2;
37290;PMS5003;23175;-33.706;151.094;2023-07-22T01:12:32;1;1;
37290;PMS5003;23175;-33.706;151.094;2023-07-22T01:15:02;1;1;
37290;PMS5003;23175;-33.706;151.094;2023-07-22T01:17:34;1;1;
37290;PMS5003;23175;-33.706;151.094;2023-07-22T01:20:06;3;3;
37290;PMS5003;23175;-33.706;151.094;2023-07-22T01:22:36;2;1;
37290;PMS5003;23175;-33.706;151.094;2023-07-22T01:25:07;3;2;
37290;PMS5003;23175;-33.706;151.094;2023-07-22T01:27:37;3;2;
37290;PMS5003;23175;-33.706;151.094;2023-07-22T01:30:07;4;2;
37290;PMS5003;23175;-33.706;151.094;2023-07-22T01:32:37;4;3;
37290;PMS5003;23175;-33.706;151.094;2023-07-22T01:35:07;2;1;
37290;PMS5003;23175;-33.706;151.094;2023-07-22T01:37:38;3;3;
37290;PMS5003;23175;-33.706;151.094;2023-07-22T01:40:09;3;2;
37290;PMS5003;23175;-33.706;151.094;2023-07-22T01:42:40;3;3;
37290;PMS5003;23175;-33.706;151.094;2023-07-22T01:45:10;2;2;
37290;PMS5003;23175;-33.706;151.094;2023-07-22T01:47:41;1;1;
37290;PMS5003;23175;-33.706;151.094;2023-07-22T01:50:10;3;3;
37290;PMS5003;23175;-33.706;151.094;2023-07-22T01:52:40;2;2;
37290;PMS5003;23175;-33.706;151.094;2023-07-22T01:55:10;5;4;
37290;PMS5003;23175;-33.706;151.094;2023-07-22T01:57:40;2;2;
37290;PMS5003;23175;-33.706;151.094;2023-07-22T02:00:11;3;3;
37290;PMS5003;23175;-33.706;151.094;2023-07-22T02:02:47;5;4;
37290;PMS5003;23175;-33.706;151.094;2023-07-22T02:05:17;2;2;
37290;PMS5003;23175;-33.706;151.094;2023-07-22T02:07:47;2;2;
37290;PMS5003;23175;-33.706;151.094;2023-07-22T02:10:18;6;5;
37290;PMS5003;23175;-33.706;151.094;2023-07-22T02:12:48;2;2;
37290;PMS5003;23175;-33.706;151.094;2023-07-22T02:15:18;3;2;
37290;PMS5003;23175;-33.706;151.094;2023-07-22T02:17:48;5;4;
37290;PMS5003;23175;-33.706;151.094;2023-07-22T02:20:18;1;1;
37290;PMS5003;23175;-33.706;151.094;2023-07-22T02:22:48;3;2;
37290;PMS5003;23175;-33.706;151.094;2023-07-22T02:25:18;3;3;
37290;PMS5003;23175;-33.706;151.094;2023-07-22T02:27:48;4;4;
37290;PMS5003;23175;-33.706;151.094;2023-07-22T02:30:23;6;3;
37290;PMS5003;23175;-33.706;151.094;2023-07-22T02:32:52;2;2;
37290;PMS5003;23175;-33.706;151.094;2023-07-22T02:35:23;0;0;
37290;PMS5003;23175;-33.706;151.094;2023-07-22T02:37:53;4;2;
37290;PMS5003;23175;-33.706;151.094;2023-07-22T02:40:23;1;1;
37290;PMS5003;23175;-33.706;151.094;2023-07-22T02:42:54;1;1;
37290;PMS5003;23175;-33.706;151.094;2023-07-22T02:45:24;3;3;
37290;PMS5003;23175;-33.706;151.094;2023-07-22T02:47:54;3;3;
37290;PMS5003;23175;-33.706;151.094;2023-07-22T02:50:25;3;3;
37290;PMS5003;23175;-33.706;151.094;2023-07-22T02:52:55;3;3;
37290;PMS5003;23175;-33.706;151.094;2023-07-22T02:55:25;2;2;
37290;PMS5003;23175;-33.706;151.094;2023-07-22T02:57:55;2;2;
37290;PMS5003;23175;-33.706;151.094;2023-07-22T03:00:25;2;2;
37290;PMS5003;23175;-33.706;151.094;2023-07-22T03:02:55;1;1;
37290;PMS5003;23175;-33.706;151.094;2023-07-22T03:05:26;0;0;
37290;PMS5003;23175;-33.706;151.094;2023-07-22T03:07:58;1;1;
37290;PMS5003;23175;-33.706;151.094;2023-07-22T03:10:29;2;2;
37290;PMS5003;23175;-33.706;151.094;2023-07-22T03:12:58;4;3;
37290;PMS5003;23175;-33.706;151.094;2023-07-22T03:15:28;2;2;
37290;PMS5003;23175;-33.706;151.094;2023-07-22T03:18:03;2;2;
37290;PMS5003;23175;-33.706;151.094;2023-07-22T03:20:34;2;2;
37290;PMS5003;23175;-33.706;151.094;2023-07-22T03:23:04;2;2;
37290;PMS5003;23175;-33.706;151.094;2023-07-22T03:25:35;1;1;
37290;PMS5003;23175;-33.706;151.094;2023-07-22T03:28:05;1;1;
37290;PMS5003;23175;-33.706;151.094;2023-07-22T03:30:35;1;1;
37290;PMS5003;23175;-33.706;151.094;2023-07-22T03:33:05;3;2;
37290;PMS5003;23175;-33.706;151.094;2023-07-22T03:35:35;2;2;
37290;PMS5003;23175;-33.706;151.094;2023-07-22T03:38:05;2;2;
37290;PMS5003;23175;-33.706;151.094;2023-07-22T03:40:35;2;2;
37290;PMS5003;23175;-33.706;151.094;2023-07-22T03:43:05;4;2;
37290;PMS5003;23175;-33.706;151.094;2023-07-22T03:45:35;5;2;
37290;PMS5003;23175;-33.706;151.094;2023-07-22T03:48:05;1;1;
37290;PMS5003;23175;-33.706;151.094;2023-07-22T03:50:35;3;3;
37290;PMS5003;23175;-33.706;151.094;2023-07-22T03:53:05;4;3;
37290;PMS5003;23175;-33.706;151.094;2023-07-22T03:55:35;2;2;
37290;PMS5003;23175;-33.706;151.094;2023-07-22T03:58:05;5;5;
37290;PMS5003;23175;-33.706;151.094;2023-07-22T04:00:34;3;2;
37290;PMS5003;23175;-33.706;151.094;2023-07-22T04:03:05;1;1;
37290;PMS5003;23175;-33.706;151.094;2023-07-22T04:05:35;1;0;
37290;PMS5003;23175;-33.706;151.094;2023-07-22T04:08:05;2;2;
37290;PMS5003;23175;-33.706;151.094;2023-07-22T04:10:34;2;2;
37290;PMS5003;23175;-33.706;151.094;2023-07-22T04:13:04;2;2;
37290;PMS5003;23175;-33.706;151.094;2023-07-22T04:15:34;2;2;
37290;PMS5003;23175;-33.706;151.094;2023-07-22T04:18:04;3;3;
37290;PMS5003;23175;-33.706;151.094;2023-07-22T04:20:34;3;1;
37290;PMS5003;23175;-33.706;151.094;2023-07-22T04:23:04;2;2;
37290;PMS5003;23175;-33.706;151.094;2023-07-22T04:25:38;6;6;
37290;PMS5003;23175;-33.706;151.094;2023-07-22T04:28:08;5;3;
37290;PMS5003;23175;-33.706;151.094;2023-07-22T04:30:39;0;0;
37290;PMS5003;23175;-33.706;151.094;2023-07-22T04:33:08;2;2;
37290;PMS5003;23175;-33.706;151.094;2023-07-22T04:35:40;2;2;
37290;PMS5003;23175;-33.706;151.094;2023-07-22T04:38:10;3;2;
37290;PMS5003;23175;-33.706;151.094;2023-07-22T04:40:43;3;3;
37290;PMS5003;23175;-33.706;151.094;2023-07-22T04:43:12;2;2;
37290;PMS5003;23175;-33.706;151.094;2023-07-22T04:45:43;2;2;
37290;PMS5003;23175;-33.706;151.094;2023-07-22T04:48:14;1;1;
37290;PMS5003;23175;-33.706;151.094;2023-07-22T04:50:47;2;0;
37290;PMS5003;23175;-33.706;151.094;2023-07-22T04:53:18;2;2;
37290;PMS5003;23175;-33.706;151.094;2023-07-22T04:55:48;4;3;
37290;PMS5003;23175;-33.706;151.094;2023-07-22T04:58:19;2;1;
37290;PMS5003;23175;-33.706;151.094;2023-07-22T05:00:48;2;2;
37290;PMS5003;23175;-33.706;151.094;2023-07-22T05:03:19;2;1;
37290;PMS5003;23175;-33.706;151.094;2023-07-22T05:05:49;2;2;
37290;PMS5003;23175;-33.706;151.094;2023-07-22T05:08:19;3;3;
37290;PMS5003;23175;-33.706;151.094;2023-07-22T05:10:54;3;3;
37290;PMS5003;23175;-33.706;151.094;2023-07-22T05:13:23;2;2;
37290;PMS5003;23175;-33.706;151.094;2023-07-22T05:15:55;2;2;
37290;PMS5003;23175;-33.706;151.094;2023-07-22T05:18:25;2;2;
37290;PMS5003;23175;-33.706;151.094;2023-07-22T05:20:55;9;6;
37290;PMS5003;23175;-33.706;151.094;2023-07-22T05:23:25;3;2;
37290;PMS5003;23175;-33.706;151.094;2023-07-22T05:25:56;3;3;
37290;PMS5003;23175;-33.706;151.094;2023-07-22T05:28:26;3;3;
37290;PMS5003;23175;-33.706;151.094;2023-07-22T05:30:56;3;3;
37290;PMS5003;23175;-33.706;151.094;2023-07-22T05:33:27;3;3;
37290;PMS5003;23175;-33.706;151.094;2023-07-22T05:35:57;2;2;
37290;PMS5003;23175;-33.706;151.094;2023-07-22T05:38:26;5;5;
37290;PMS5003;23175;-33.706;151.094;2023-07-22T05:40:57;4;4;
37290;PMS5003;23175;-33.706;151.094;2023-07-22T05:43:27;3;2;
37290;PMS5003;23175;-33.706;151.094;2023-07-22T05:45:56;2;2;
37290;PMS5003;23175;-33.706;151.094;2023-07-22T05:48:26;2;2;
37290;PMS5003;23175;-33.706;151.094;2023-07-22T05:50:56;2;2;
37290;PMS5003;23175;-33.706;151.094;2023-07-22T05:53:27;3;1;
37290;PMS5003;23175;-33.706;151.094;2023-07-22T05:55:57;6;2;
37290;PMS5003;23175;-33.706;151.094;2023-07-22T05:58:32;1;1;
37290;PMS5003;23175;-33.706;151.094;2023-07-22T06:01:03;3;3;
37290;PMS5003;23175;-33.706;151.094;2023-07-22T06:03:33;3;1;
37290;PMS5003;23175;-33.706;151.094;2023-07-22T06:06:03;1;1;
37290;PMS5003;23175;-33.706;151.094;2023-07-22T06:08:32;3;3;
37290;PMS5003;23175;-33.706;151.094;2023-07-22T06:11:03;3;3;
37290;PMS5003;23175;-33.706;151.094;2023-07-22T06:13:33;2;2;
37290;PMS5003;23175;-33.706;151.094;2023-07-22T06:16:02;2;2;
37290;PMS5003;23175;-33.706;151.094;2023-07-22T06:18:32;2;2;
37290;PMS5003;23175;-33.706;151.094;2023-07-22T06:21:03;1;1;
37290;PMS5003;23175;-33.706;151.094;2023-07-22T06:23:32;1;1;
37290;PMS5003;23175;-33.706;151.094;2023-07-22T06:26:02;3;2;
37290;PMS5003;23175;-33.706;151.094;2023-07-22T06:28:32;1;1;
37290;PMS5003;23175;-33.706;151.094;2023-07-22T06:31:02;2;2;
37290;PMS5003;23175;-33.706;151.094;2023-07-22T06:33:32;3;3;
37290;PMS5003;23175;-33.706;151.094;2023-07-22T06:36:02;3;2;
37290;PMS5003;23175;-33.706;151.094;2023-07-22T06:38:32;0;0;
37290;PMS5003;23175;-33.706;151.094;2023-07-22T06:41:02;1;1;
37290;PMS5003;23175;-33.706;151.094;2023-07-22T06:43:32;2;2;
37290;PMS5003;23175;-33.706;151.094;2023-07-22T06:46:07;2;2;
37290;PMS5003;23175;-33.706;151.094;2023-07-22T06:48:42;3;2;
37290;PMS5003;23175;-33.706;151.094;2023-07-22T06:51:12;3;2;
37290;PMS5003;23175;-33.706;151.094;2023-07-22T06:53:42;1;1;
37290;PMS5003;23175;-33.706;151.094;2023-07-22T06:56:12;3;3;
37290;PMS5003;23175;-33.706;151.094;2023-07-22T06:58:42;4;3;
37290;PMS5003;23175;-33.706;151.094;2023-07-22T07:01:12;3;3;
37290;PMS5003;23175;-33.706;151.094;2023-07-22T07:03:42;3;3;
37290;PMS5003;23175;-33.706;151.094;2023-07-22T07:06:12;8;7;
37290;PMS5003;23175;-33.706;151.094;2023-07-22T07:08:42;5;4;
37290;PMS5003;23175;-33.706;151.094;2023-07-22T07:11:12;5;5;
37290;PMS5003;23175;-33.706;151.094;2023-07-22T07:13:41;6;5;
37290;PMS5003;23175;-33.706;151.094;2023-07-22T07:16:28;6;5;
37290;PMS5003;23175;-33.706;151.094;2023-07-22T07:19:00;10;7;
37290;PMS5003;23175;-33.706;151.094;2023-07-22T07:21:30;6;6;
37290;PMS5003;23175;-33.706;151.094;2023-07-22T07:24:00;4;4;
37290;PMS5003;23175;-33.706;151.094;2023-07-22T07:26:29;6;6;
37290;PMS5003;23175;-33.706;151.094;2023-07-22T07:28:59;10;8;
37290;PMS5003;23175;-33.706;151.094;2023-07-22T07:31:34;18;15;
37290;PMS5003;23175;-33.706;151.094;2023-07-22T07:34:04;23;22;
37290;PMS5003;23175;-33.706;151.094;2023-07-22T07:36:39;26;25;
37290;PMS5003;23175;-33.706;151.094;2023-07-22T07:39:09;40;38;
37290;PMS5003;23175;-33.706;151.094;2023-07-22T07:41:39;44;41;
37290;PMS5003;23175;-33.706;151.094;2023-07-22T07:44:09;43;40;
37290;PMS5003;23175;-33.706;151.094;2023-07-22T07:46:40;31;29;
37290;PMS5003;23175;-33.706;151.094;2023-07-22T07:49:15;42;41;
37290;PMS5003;23175;-33.706;151.094;2023-07-22T07:51:45;31;28;
37290;PMS5003;23175;-33.706;151.094;2023-07-22T07:54:15;18;18;
37290;PMS5003;23175;-33.706;151.094;2023-07-22T07:56:50;33;31;
37290;PMS5003;23175;-33.706;151.094;2023-07-22T07:59:20;27;27;
37290;PMS5003;23175;-33.706;151.094;2023-07-22T08:01:50;32;32;
37290;PMS5003;23175;-33.706;151.094;2023-07-22T08:04:20;17;16;
37290;PMS5003;23175;-33.706;151.094;2023-07-22T08:06:51;25;24;
37290;PMS5003;23175;-33.706;151.094;2023-07-22T08:09:21;27;27;
37290;PMS5003;23175;-33.706;151.094;2023-07-22T08:11:51;67;66;
37290;PMS5003;23175;-33.706;151.094;2023-07-22T08:14:22;72;68;
37290;PMS5003;23175;-33.706;151.094;2023-07-22T08:16:53;39;37;
37290;PMS5003;23175;-33.706;151.094;2023-07-22T08:19:23;52;48;
37290;PMS5003;23175;-33.706;151.094;2023-07-22T08:21:55;49;46;
37290;PMS5003;23175;-33.706;151.094;2023-07-22T08:24:30;48;45;
37290;PMS5003;23175;-33.706;151.094;2023-07-22T08:27:05;32;30;
37290;PMS5003;23175;-33.706;151.094;2023-07-22T08:29:35;39;39;
37290;PMS5003;23175;-33.706;151.094;2023-07-22T08:32:05;39;37;
37290;PMS5003;23175;-33.706;151.094;2023-07-22T08:34:34;29;29;
37290;PMS5003;23175;-33.706;151.094;2023-07-22T08:37:05;36;35;
37290;PMS5003;23175;-33.706;151.094;2023-07-22T08:39:34;31;30;
37290;PMS5003;23175;-33.706;151.094;2023-07-22T08:42:05;38;34;
37290;PMS5003;23175;-33.706;151.094;2023-07-22T08:44:35;40;36;
37290;PMS5003;23175;-33.706;151.094;2023-07-22T08:47:13;61;56;
37290;PMS5003;23175;-33.706;151.094;2023-07-22T08:49:46;68;62;
37290;PMS5003;23175;-33.706;151.094;2023-07-22T08:52:20;68;61;
37290;PMS5003;23175;-33.706;151.094;2023-07-22T08:54:52;61;59;
37290;PMS5003;23175;-33.706;151.094;2023-07-22T08:57:23;66;62;
37290;PMS5003;23175;-33.706;151.094;2023-07-22T09:00:00;62;62;
37290;PMS5003;23175;-33.706;151.094;2023-07-22T09:02:30;56;55;
37290;PMS5003;23175;-33.706;151.094;2023-07-22T09:05:02;66;63;
37290;PMS5003;23175;-33.706;151.094;2023-07-22T09:07:38;62;59;
37290;PMS5003;23175;-33.706;151.094;2023-07-22T09:10:11;67;64;
37290;PMS5003;23175;-33.706;151.094;2023-07-22T09:12:42;58;56;
37290;PMS5003;23175;-33.706;151.094;2023-07-22T09:15:13;49;43;
37290;PMS5003;23175;-33.706;151.094;2023-07-22T09:17:44;38;35;
37290;PMS5003;23175;-33.706;151.094;2023-07-22T09:20:14;31;29;
37290;PMS5003;23175;-33.706;151.094;2023-07-22T09:22:45;23;23;
37290;PMS5003;23175;-33.706;151.094;2023-07-22T09:25:17;39;35;
37290;PMS5003;23175;-33.706;151.094;2023-07-22T09:27:51;34;32;
37290;PMS5003;23175;-33.706;151.094;2023-07-22T09:30:23;34;34;
37290;PMS5003;23175;-33.706;151.094;2023-07-22T09:32:56;40;36;
37290;PMS5003;23175;-33.706;151.094;2023-07-22T09:35:28;64;61;
37290;PMS5003;23175;-33.706;151.094;2023-07-22T09:37:59;74;71;
37290;PMS5003;23175;-33.706;151.094;2023-07-22T09:40:28;76;73;
37290;PMS5003;23175;-33.706;151.094;2023-07-22T09:43:00;75;71;
37290;PMS5003;23175;-33.706;151.094;2023-07-22T09:45:31;74;73;
37290;PMS5003;23175;-33.706;151.094;2023-07-22T09:48:03;82;78;
37290;PMS5003;23175;-33.706;151.094;2023-07-22T09:50:33;80;73;
37290;PMS5003;23175;-33.706;151.094;2023-07-22T09:53:12;84;81;
37290;PMS5003;23175;-33.706;151.094;2023-07-22T09:55:44;90;79;
37290;PMS5003;23175;-33.706;151.094;2023-07-22T09:58:14;83;76;
37290;PMS5003;23175;-33.706;151.094;2023-07-22T10:00:45;82;77;
37290;PMS5003;23175;-33.706;151.094;2023-07-22T10:03:18;85;83;
37290;PMS5003;23175;-33.706;151.094;2023-07-22T10:05:56;87;81;
37290;PMS5003;23175;-33.706;151.094;2023-07-22T10:08:31;89;81;
37290;PMS5003;23175;-33.706;151.094;2023-07-22T10:11:04;81;77;
37290;PMS5003;23175;-33.706;151.094;2023-07-22T10:13:36;114;105;
37290;PMS5003;23175;-33.706;151.094;2023-07-22T10:16:06;116;110;
37290;PMS5003;23175;-33.706;151.094;2023-07-22T10:18:37;97;87;
37290;PMS5003;23175;-33.706;151.094;2023-07-22T10:21:08;92;88;
37290;PMS5003;23175;-33.706;151.094;2023-07-22T10:23:38;100;92;
37290;PMS5003;23175;-33.706;151.094;2023-07-22T10:26:10;105;100;
37290;PMS5003;23175;-33.706;151.094;2023-07-22T10:28:41;94;92;
37290;PMS5003;23175;-33.706;151.094;2023-07-22T10:31:12;105;103;
37290;PMS5003;23175;-33.706;151.094;2023-07-22T10:33:43;113;108;
37290;PMS5003;23175;-33.706;151.094;2023-07-22T10:36:14;99;96;
37290;PMS5003;23175;-33.706;151.094;2023-07-22T10:38:44;108;102;
37290;PMS5003;23175;-33.706;151.094;2023-07-22T10:41:24;122;115;
37290;PMS5003;23175;-33.706;151.094;2023-07-22T10:43:57;125;122;
37290;PMS5003;23175;-33.706;151.094;2023-07-22T10:46:35;189;178;
37290;PMS5003;23175;-33.706;151.094;2023-07-22T10:49:14;165;156;
37290;PMS5003;23175;-33.706;151.094;2023-07-22T10:51:47;131;121;
37290;PMS5003;23175;-33.706;151.094;2023-07-22T10:54:32;135;125;
37290;PMS5003;23175;-33.706;151.094;2023-07-22T10:57:03;141;126;
37290;PMS5003;23175;-33.706;151.094;2023-07-22T10:59:50;131;126;
37290;PMS5003;23175;-33.706;151.094;2023-07-22T11:02:24;139;132;
37290;PMS5003;23175;-33.706;151.094;2023-07-22T11:04:56;134;130;
37290;PMS5003;23175;-33.706;151.094;2023-07-22T11:07:31;120;115;
37290;PMS5003;23175;-33.706;151.094;2023-07-22T11:10:18;119;113;
37290;PMS5003;23175;-33.706;151.094;2023-07-22T11:12:48;106;98;
37290;PMS5003;23175;-33.706;151.094;2023-07-22T11:15:18;103;97;
37290;PMS5003;23175;-33.706;151.094;2023-07-22T11:17:48;110;101;
37290;PMS5003;23175;-33.706;151.094;2023-07-22T11:20:19;108;103;
37290;PMS5003;23175;-33.706;151.094;2023-07-22T11:22:51;100;95;
37290;PMS5003;23175;-33.706;151.094;2023-07-22T11:25:25;106;104;
37290;PMS5003;23175;-33.706;151.094;2023-07-22T11:27:55;129;125;
37290;PMS5003;23175;-33.706;151.094;2023-07-22T11:30:25;104;98;
37290;PMS5003;23175;-33.706;151.094;2023-07-22T11:32:58;76;70;
37290;PMS5003;23175;-33.706;151.094;2023-07-22T11:35:28;67;64;
37290;PMS5003;23175;-33.706;151.094;2023-07-22T11:38:01;69;66;
37290;PMS5003;23175;-33.706;151.094;2023-07-22T11:40:35;58;58;
37290;PMS5003;23175;-33.706;151.094;2023-07-22T11:43:05;56;53;
37290;PMS5003;23175;-33.706;151.094;2023-07-22T11:45:38;53;48;
37290;PMS5003;23175;-33.706;151.094;2023-07-22T11:48:11;46;44;
37290;PMS5003;23175;-33.706;151.094;2023-07-22T11:50:41;52;50;
37290;PMS5003;23175;-33.706;151.094;2023-07-22T11:53:11;53;49;
37290;PMS5003;23175;-33.706;151.094;2023-07-22T11:55:41;44;43;
37290;PMS5003;23175;-33.706;151.094;2023-07-22T11:58:12;41;39;
37290;PMS5003;23175;-33.706;151.094;2023-07-22T12:00:42;42;40;
37290;PMS5003;23175;-33.706;151.094;2023-07-22T12:03:15;48;45;
37290;PMS5003;23175;-33.706;151.094;2023-07-22T12:05:45;57;53;
37290;PMS5003;23175;-33.706;151.094;2023-07-22T12:08:15;51;51;
37290;PMS5003;23175;-33.706;151.094;2023-07-22T12:10:45;59;55;
37290;PMS5003;23175;-33.706;151.094;2023-07-22T12:13:26;50;48;
37290;PMS5003;23175;-33.706;151.094;2023-07-22T12:16:04;52;49;
37290;PMS5003;23175;-33.706;151.094;2023-07-22T12:18:49;59;53;
37290;PMS5003;23175;-33.706;151.094;2023-07-22T12:21:25;55;55;
37290;PMS5003;23175;-33.706;151.094;2023-07-22T12:23:55;51;50;
37290;PMS5003;23175;-33.706;151.094;2023-07-22T12:26:25;51;50;
37290;PMS5003;23175;-33.706;151.094;2023-07-22T12:28:56;52;50;
37290;PMS5003;23175;-33.706;151.094;2023-07-22T12:31:26;56;53;
37290;PMS5003;23175;-33.706;151.094;2023-07-22T12:33:55;54;52;
37290;PMS5003;23175;-33.706;151.094;2023-07-22T12:36:25;53;51;
37290;PMS5003;23175;-33.706;151.094;2023-07-22T12:38:55;59;55;
37290;PMS5003;23175;-33.706;151.094;2023-07-22T12:41:25;48;45;
37290;PMS5003;23175;-33.706;151.094;2023-07-22T12:43:55;59;56;
37290;PMS5003;23175;-33.706;151.094;2023-07-22T12:46:26;60;59;
37290;PMS5003;23175;-33.706;151.094;2023-07-22T12:48:56;52;50;
37290;PMS5003;23175;-33.706;151.094;2023-07-22T12:51:26;49;45;
37290;PMS5003;23175;-33.706;151.094;2023-07-22T12:53:56;52;49;
37290;PMS5003;23175;-33.706;151.094;2023-07-22T12:56:26;45;45;
37290;PMS5003;23175;-33.706;151.094;2023-07-22T12:58:57;52;45;
37290;PMS5003;23175;-33.706;151.094;2023-07-22T13:01:27;50;48;
37290;PMS5003;23175;-33.706;151.094;2023-07-22T13:03:57;55;49;
37290;PMS5003;23175;-33.706;151.094;2023-07-22T13:06:27;52;50;
37290;PMS5003;23175;-33.706;151.094;2023-07-22T13:08:57;59;58;
37290;PMS5003;23175;-33.706;151.094;2023-07-22T13:11:27;62;59;
37290;PMS5003;23175;-33.706;151.094;2023-07-22T13:13:57;55;52;
37290;PMS5003;23175;-33.706;151.094;2023-07-22T13:16:27;81;74;
37290;PMS5003;23175;-33.706;151.094;2023-07-22T13:18:57;63;59;
37290;PMS5003;23175;-33.706;151.094;2023-07-22T13:21:27;68;64;
37290;PMS5003;23175;-33.706;151.094;2023-07-22T13:23:57;114;104;
37290;PMS5003;23175;-33.706;151.094;2023-07-22T13:26:26;141;133;
37290;PMS5003;23175;-33.706;151.094;2023-07-22T13:28:56;108;103;
37290;PMS5003;23175;-33.706;151.094;2023-07-22T13:31:26;100;92;
37290;PMS5003;23175;-33.706;151.094;2023-07-22T13:33:56;82;74;
37290;PMS5003;23175;-33.706;151.094;2023-07-22T13:36:27;80;76;
37290;PMS5003;23175;-33.706;151.094;2023-07-22T13:38:57;83;83;
37290;PMS5003;23175;-33.706;151.094;2023-07-22T13:41:28;85;79;
37290;PMS5003;23175;-33.706;151.094;2023-07-22T13:43:57;86;85;
37290;PMS5003;23175;-33.706;151.094;2023-07-22T13:46:28;87;82;
37290;PMS5003;23175;-33.706;151.094;2023-07-22T13:48:59;90;90;
37290;PMS5003;23175;-33.706;151.094;2023-07-22T13:51:29;76;67;
37290;PMS5003;23175;-33.706;151.094;2023-07-22T13:53:59;88;84;
37290;PMS5003;23175;-33.706;151.094;2023-07-22T13:56:29;85;81;
37290;PMS5003;23175;-33.706;151.094;2023-07-22T13:59:00;83;75;
37290;PMS5003;23175;-33.706;151.094;2023-07-22T14:01:36;85;77;
37290;PMS5003;23175;-33.706;151.094;2023-07-22T14:04:06;82;77;
37290;PMS5003;23175;-33.706;151.094;2023-07-22T14:06:36;77;76;
37290;PMS5003;23175;-33.706;151.094;2023-07-22T14:09:11;65;61;
37290;PMS5003;23175;-33.706;151.094;2023-07-22T14:11:42;77;74;
37290;PMS5003;23175;-33.706;151.094;2023-07-22T14:14:12;77;75;
37290;PMS5003;23175;-33.706;151.094;2023-07-22T14:16:42;78;70;
37290;PMS5003;23175;-33.706;151.094;2023-07-22T14:19:12;76;73;
37290;PMS5003;23175;-33.706;151.094;2023-07-22T14:21:42;96;92;
37290;PMS5003;23175;-33.706;151.094;2023-07-22T14:24:13;108;105;
37290;PMS5003;23175;-33.706;151.094;2023-07-22T14:26:44;99;95;
37290;PMS5003;23175;-33.706;151.094;2023-07-22T14:29:19;88;87;
37290;PMS5003;23175;-33.706;151.094;2023-07-22T14:31:50;90;87;
37290;PMS5003;23175;-33.706;151.094;2023-07-22T14:34:19;78;76;
37290;PMS5003;23175;-33.706;151.094;2023-07-22T14:36:50;74;67;
37290;PMS5003;23175;-33.706;151.094;2023-07-22T14:39:20;85;78;
37290;PMS5003;23175;-33.706;151.094;2023-07-22T14:41:50;76;72;
37290;PMS5003;23175;-33.706;151.094;2023-07-22T14:44:22;72;69;
37290;PMS5003;23175;-33.706;151.094;2023-07-22T14:46:54;74;73;
37290;PMS5003;23175;-33.706;151.094;2023-07-22T14:49:24;78;75;
37290;PMS5003;23175;-33.706;151.094;2023-07-22T14:51:54;82;79;
37290;PMS5003;23175;-33.706;151.094;2023-07-22T14:54:24;76;75;
37290;PMS5003;23175;-33.706;151.094;2023-07-22T14:56:55;77;74;
37290;PMS5003;23175;-33.706;151.094;2023-07-22T14:59:26;72;70;
37290;PMS5003;23175;-33.706;151.094;2023-07-22T15:01:56;70;68;
37290;PMS5003;23175;-33.706;151.094;2023-07-22T15:04:26;67;65;
37290;PMS5003;23175;-33.706;151.094;2023-07-22T15:06:56;63;61;
37290;PMS5003;23175;-33.706;151.094;2023-07-22T15:09:26;56;54;
37290;PMS5003;23175;-33.706;151.094;2023-07-22T15:11:57;59;56;
37290;PMS5003;23175;-33.706;151.094;2023-07-22T15:14:27;58;54;
37290;PMS5003;23175;-33.706;151.094;2023-07-22T15:16:57;57;54;
37290;PMS5003;23175;-33.706;151.094;2023-07-22T15:19:33;51;51;
37290;PMS5003;23175;-33.706;151.094;2023-07-22T15:22:03;45;42;
37290;PMS5003;23175;-33.706;151.094;2023-07-22T15:24:34;48;48;
37290;PMS5003;23175;-33.706;151.094;2023-07-22T15:27:04;60;52;
37290;PMS5003;23175;-33.706;151.094;2023-07-22T15:29:34;45;45;
37290;PMS5003;23175;-33.706;151.094;2023-07-22T15:32:04;46;44;
37290;PMS5003;23175;-33.706;151.094;2023-07-22T15:34:34;42;42;
37290;PMS5003;23175;-33.706;151.094;2023-07-22T15:37:05;42;40;
37290;PMS5003;23175;-33.706;151.094;2023-07-22T15:39:36;43;41;
37290;PMS5003;23175;-33.706;151.094;2023-07-22T15:42:06;40;39;
37290;PMS5003;23175;-33.706;151.094;2023-07-22T15:44:36;37;36;
37290;PMS5003;23175;-33.706;151.094;2023-07-22T15:47:06;36;33;
37290;PMS5003;23175;-33.706;151.094;2023-07-22T15:49:36;33;33;
37290;PMS5003;23175;-33.706;151.094;2023-07-22T15:52:05;42;39;
37290;PMS5003;23175;-33.706;151.094;2023-07-22T15:54:36;41;39;
37290;PMS5003;23175;-33.706;151.094;2023-07-22T15:57:06;40;36;
37290;PMS5003;23175;-33.706;151.094;2023-07-22T15:59:37;42;38;
37290;PMS5003;23175;-33.706;151.094;2023-07-22T16:02:07;31;31;
37290;PMS5003;23175;-33.706;151.094;2023-07-22T16:04:36;29;24;
37290;PMS5003;23175;-33.706;151.094;2023-07-22T16:07:07;34;32;